sensor_id;sensor_type;location;lat;lon;timestamp;temperature;humidity
35680;DHT22;21803;53.586;10.040;2023-07-31T04:02:30;25.70;48.20
35680;DHT22;21803;53.586;10.040;2023-07-31T04:04:55;25.70;48.20
35680;DHT22;21803;53.586;10.040;2023-07-31T04:07:21;25.70;48.20
35680;DHT22;21803;53.586;10.040;2023-07-31T04:09:46;25.70;48.80
35680;DHT22;21803;53.586;10.040;2023-07-31T04:12:12;25.70;48.20
35680;DHT22;21803;53.586;10.040;2023-07-31T04:14:37;25.70;48.20
35680;DHT22;21803;53.586;10.040;2023-07-31T04:17:03;25.70;48.20
35680;DHT22;21803;53.586;10.040;2023-07-31T04:19:28;25.70;48.20
35680;DHT22;21803;53.586;10.040;2023-07-31T04:21:54;25.70;48.20
35680;DHT22;21803;53.586;10.040;2023-07-31T04:24:19;25.80;48.30
35680;DHT22;21803;53.586;10.040;2023-07-31T04:26:50;25.70;48.20
35680;DHT22;21803;53.586;10.040;2023-07-31T04:29:15;25.70;48.20
35680;DHT22;21803;53.586;10.040;2023-07-31T04:31:41;25.70;48.20
35680;DHT22;21803;53.586;10.040;2023-07-31T04:34:07;25.60;48.20
35680;DHT22;21803;53.586;10.040;2023-07-31T04:36:33;25.70;48.20
35680;DHT22;21803;53.586;10.040;2023-07-31T04:38:59;25.60;48.10
35680;DHT22;21803;53.586;10.040;2023-07-31T04:41:25;25.70;48.20
35680;DHT22;21803;53.586;10.040;2023-07-31T04:43:50;25.70;48.20
35680;DHT22;21803;53.586;10.040;2023-07-31T04:46:16;25.70;48.20
35680;DHT22;21803;53.586;10.040;2023-07-31T04:48:42;25.70;48.20
35680;DHT22;21803;53.586;10.040;2023-07-31T04:51:07;25.70;48.20
35680;DHT22;21803;53.586;10.040;2023-07-31T04:53:33;25.70;48.30
35680;DHT22;21803;53.586;10.040;2023-07-31T04:55:58;25.60;48.20
35680;DHT22;21803;53.586;10.040;2023-07-31T04:58:24;25.70;48.20
35680;DHT22;21803;53.586;10.040;2023-07-31T05:00:49;25.80;48.30
35680;DHT22;21803;53.586;10.040;2023-07-31T05:03:15;25.70;48.20
35680;DHT22;21803;53.586;10.040;2023-07-31T05:05:40;25.60;48.20
35680;DHT22;21803;53.586;10.040;2023-07-31T05:08:06;25.70;48.20
35680;DHT22;21803;53.586;10.040;2023-07-31T05:10:31;25.70;48.20
35680;DHT22;21803;53.586;10.040;2023-07-31T05:12:57;25.70;48.30
35680;DHT22;21803;53.586;10.040;2023-07-31T05:15:22;25.60;48.50
35680;DHT22;21803;53.586;10.040;2023-07-31T05:17:48;25.70;48.30
35680;DHT22;21803;53.586;10.040;2023-07-31T05:20:13;25.70;48.30
35680;DHT22;21803;53.586;10.040;2023-07-31T05:22:40;25.70;48.20
35680;DHT22;21803;53.586;10.040;2023-07-31T05:25:06;25.80;48.30
35680;DHT22;21803;53.586;10.040;2023-07-31T05:27:31;25.70;48.30
35680;DHT22;21803;53.586;10.040;2023-07-31T05:29:57;25.70;48.30
35680;DHT22;21803;53.586;10.040;2023-07-31T05:32:23;25.70;48.30
35680;DHT22;21803;53.586;10.040;2023-07-31T05:34:51;25.70;48.30
35680;DHT22;21803;53.586;10.040;2023-07-31T05:37:17;25.80;48.40
35680;DHT22;21803;53.586;10.040;2023-07-31T05:39:43;25.60;48.20
35680;DHT22;21803;53.586;10.040;2023-07-31T05:42:08;25.70;48.30
35680;DHT22;21803;53.586;10.040;2023-07-31T05:44:34;25.70;48.30
35680;DHT22;21803;53.586;10.040;2023-07-31T05:46:59;25.70;48.30
35680;DHT22;21803;53.586;10.040;2023-07-31T05:49:25;25.60;48.20
35680;DHT22;21803;53.586;10.040;2023-07-31T05:51:50;25.70;48.30
35680;DHT22;21803;53.586;10.040;2023-07-31T05:54:16;25.60;48.30
35680;DHT22;21803;53.586;10.040;2023-07-31T05:56:41;25.70;48.30
35680;DHT22;21803;53.586;10.040;2023-07-31T05:59:08;25.70;48.30
35680;DHT22;21803;53.586;10.040;2023-07-31T06:01:34;25.70;48.30
35680;DHT22;21803;53.586;10.040;2023-07-31T06:03:59;25.70;48.30
35680;DHT22;21803;53.586;10.040;2023-07-31T06:06:25;25.80;48.40
35680;DHT22;21803;53.586;10.040;2023-07-31T06:08:50;25.60;48.30
35680;DHT22;21803;53.586;10.040;2023-07-31T06:11:16;25.70;48.30
35680;DHT22;21803;53.586;10.040;2023-07-31T06:13:41;25.70;48.30
35680;DHT22;21803;53.586;10.040;2023-07-31T06:16:09;25.70;48.30
35680;DHT22;21803;53.586;10.040;2023-07-31T06:18:35;25.70;48.30
35680;DHT22;21803;53.586;10.040;2023-07-31T06:21:00;25.70;48.30
35680;DHT22;21803;53.586;10.040;2023-07-31T06:23:26;25.70;48.30
35680;DHT22;21803;53.586;10.040;2023-07-31T06:25:52;25.80;48.40
35680;DHT22;21803;53.586;10.040;2023-07-31T06:28:17;25.70;48.30
35680;DHT22;21803;53.586;10.040;2023-07-31T06:30:42;25.70;48.30
35680;DHT22;21803;53.586;10.040;2023-07-31T06:33:08;25.70;48.40
35680;DHT22;21803;53.586;10.040;2023-07-31T06:35:34;25.70;48.30
35680;DHT22;21803;53.586;10.040;2023-07-31T06:38:00;25.70;48.30
35680;DHT22;21803;53.586;10.040;2023-07-31T06:40:26;25.70;48.40
35680;DHT22;21803;53.586;10.040;2023-07-31T06:42:52;25.70;48.30
35680;DHT22;21803;53.586;10.040;2023-07-31T06:45:17;25.60;48.30
35680;DHT22;21803;53.586;10.040;2023-07-31T06:47:43;25.70;48.30
35680;DHT22;21803;53.586;10.040;2023-07-31T06:50:09;25.70;48.40
35680;DHT22;21803;53.586;10.040;2023-07-31T06:52:34;25.70;48.30
35680;DHT22;21803;53.586;10.040;2023-07-31T06:55:15;25.70;48.40
35680;DHT22;21803;53.586;10.040;2023-07-31T06:57:44;25.70;48.40
35680;DHT22;21803;53.586;10.040;2023-07-31T07:00:10;25.70;48.40
35680;DHT22;21803;53.586;10.040;2023-07-31T07:02:36;25.70;48.40
35680;DHT22;21803;53.586;10.040;2023-07-31T07:05:01;25.70;48.40
35680;DHT22;21803;53.586;10.040;2023-07-31T07:07:28;25.60;48.30
35680;DHT22;21803;53.586;10.040;2023-07-31T07:09:53;25.70;48.40
35680;DHT22;21803;53.586;10.040;2023-07-31T07:12:19;25.70;48.40
35680;DHT22;21803;53.586;10.040;2023-07-31T07:14:44;25.70;48.40
35680;DHT22;21803;53.586;10.040;2023-07-31T07:17:13;25.70;48.40
35680;DHT22;21803;53.586;10.040;2023-07-31T07:19:40;25.70;48.40
35680;DHT22;21803;53.586;10.040;2023-07-31T07:22:07;25.70;48.40
35680;DHT22;21803;53.586;10.040;2023-07-31T07:24:33;25.70;48.40
35680;DHT22;21803;53.586;10.040;2023-07-31T07:26:58;25.70;48.50
35680;DHT22;21803;53.586;10.040;2023-07-31T07:29:24;25.70;48.50
35680;DHT22;21803;53.586;10.040;2023-07-31T07:31:49;25.70;48.50
35680;DHT22;21803;53.586;10.040;2023-07-31T07:34:15;25.70;48.50
35680;DHT22;21803;53.586;10.040;2023-07-31T07:36:40;25.70;48.40
35680;DHT22;21803;53.586;10.040;2023-07-31T07:39:06;25.70;48.50
35680;DHT22;21803;53.586;10.040;2023-07-31T07:41:31;25.70;48.50
35680;DHT22;21803;53.586;10.040;2023-07-31T07:43:57;25.70;48.50
35680;DHT22;21803;53.586;10.040;2023-07-31T07:46:22;25.60;48.40
35680;DHT22;21803;53.586;10.040;2023-07-31T07:48:48;25.70;48.50
35680;DHT22;21803;53.586;10.040;2023-07-31T07:51:14;25.80;48.60
35680;DHT22;21803;53.586;10.040;2023-07-31T07:53:39;25.70;48.50
35680;DHT22;21803;53.586;10.040;2023-07-31T07:56:05;25.70;48.50
35680;DHT22;21803;53.586;10.040;2023-07-31T07:58:30;25.70;48.50
35680;DHT22;21803;53.586;10.040;2023-07-31T08:00:55;25.70;48.50
35680;DHT22;21803;53.586;10.040;2023-07-31T08:03:21;25.60;48.50
35680;DHT22;21803;53.586;10.040;2023-07-31T08:05:47;25.70;48.60
35680;DHT22;21803;53.586;10.040;2023-07-31T08:08:15;25.70;48.50
35680;DHT22;21803;53.586;10.040;2023-07-31T08:10:44;25.70;48.50
35680;DHT22;21803;53.586;10.040;2023-07-31T08:13:11;25.70;48.50
35680;DHT22;21803;53.586;10.040;2023-07-31T08:15:36;25.70;48.50
35680;DHT22;21803;53.586;10.040;2023-07-31T08:18:02;25.70;48.50
35680;DHT22;21803;53.586;10.040;2023-07-31T08:20:28;25.70;48.60
35680;DHT22;21803;53.586;10.040;2023-07-31T08:22:53;25.70;48.60
35680;DHT22;21803;53.586;10.040;2023-07-31T08:25:19;25.70;48.60
35680;DHT22;21803;53.586;10.040;2023-07-31T08:27:44;25.70;48.60
35680;DHT22;21803;53.586;10.040;2023-07-31T08:30:12;25.60;48.50
35680;DHT22;21803;53.586;10.040;2023-07-31T08:32:37;25.70;48.60
35680;DHT22;21803;53.586;10.040;2023-07-31T08:35:03;25.60;48.60
35680;DHT22;21803;53.586;10.040;2023-07-31T08:37:29;25.70;48.60
35680;DHT22;21803;53.586;10.040;2023-07-31T08:39:55;25.20;48.30
35680;DHT22;21803;53.586;10.040;2023-07-31T08:42:20;25.70;48.60
35680;DHT22;21803;53.586;10.040;2023-07-31T08:44:46;25.70;48.60
35680;DHT22;21803;53.586;10.040;2023-07-31T08:47:13;25.70;48.60
35680;DHT22;21803;53.586;10.040;2023-07-31T08:49:39;25.70;48.60
35680;DHT22;21803;53.586;10.040;2023-07-31T08:52:06;25.70;48.60
35680;DHT22;21803;53.586;10.040;2023-07-31T08:54:32;25.70;48.60
35680;DHT22;21803;53.586;10.040;2023-07-31T08:56:58;25.80;48.70
35680;DHT22;21803;53.586;10.040;2023-07-31T08:59:27;25.70;48.60
35680;DHT22;21803;53.586;10.040;2023-07-31T09:01:55;25.70;48.60
35680;DHT22;21803;53.586;10.040;2023-07-31T09:04:23;25.60;48.50
35680;DHT22;21803;53.586;10.040;2023-07-31T09:06:50;25.70;48.60
35680;DHT22;21803;53.586;10.040;2023-07-31T09:09:21;25.70;48.60
35680;DHT22;21803;53.586;10.040;2023-07-31T09:11:46;25.70;48.60
35680;DHT22;21803;53.586;10.040;2023-07-31T09:14:13;25.70;48.70
35680;DHT22;21803;53.586;10.040;2023-07-31T09:16:55;25.70;48.70
35680;DHT22;21803;53.586;10.040;2023-07-31T09:19:35;25.70;48.70
35680;DHT22;21803;53.586;10.040;2023-07-31T09:22:03;25.70;48.70
35680;DHT22;21803;53.586;10.040;2023-07-31T09:24:30;25.70;48.70
35680;DHT22;21803;53.586;10.040;2023-07-31T09:26:57;25.80;48.70
35680;DHT22;21803;53.586;10.040;2023-07-31T09:29:24;25.80;48.70
35680;DHT22;21803;53.586;10.040;2023-07-31T09:31:50;25.70;48.70
35680;DHT22;21803;53.586;10.040;2023-07-31T09:34:15;25.70;48.70
35680;DHT22;21803;53.586;10.040;2023-07-31T09:36:46;25.70;48.70
35680;DHT22;21803;53.586;10.040;2023-07-31T09:39:13;25.70;48.80
35680;DHT22;21803;53.586;10.040;2023-07-31T09:41:44;25.60;48.70
35680;DHT22;21803;53.586;10.040;2023-07-31T09:44:10;25.70;48.70
35680;DHT22;21803;53.586;10.040;2023-07-31T09:46:36;25.70;48.70
35680;DHT22;21803;53.586;10.040;2023-07-31T09:49:14;25.70;48.70
35680;DHT22;21803;53.586;10.040;2023-07-31T09:51:41;25.70;48.70
35680;DHT22;21803;53.586;10.040;2023-07-31T09:54:11;25.70;48.80
35680;DHT22;21803;53.586;10.040;2023-07-31T09:56:47;25.70;48.80
35680;DHT22;21803;53.586;10.040;2023-07-31T09:59:15;25.70;48.70
35680;DHT22;21803;53.586;10.040;2023-07-31T10:01:42;25.70;48.70
35680;DHT22;21803;53.586;10.040;2023-07-31T10:04:08;25.70;48.70
35680;DHT22;21803;53.586;10.040;2023-07-31T10:06:36;25.70;48.80
35680;DHT22;21803;53.586;10.040;2023-07-31T10:09:05;25.70;48.80
35680;DHT22;21803;53.586;10.040;2023-07-31T10:11:33;25.70;48.80
35680;DHT22;21803;53.586;10.040;2023-07-31T10:14:01;25.70;48.80
35680;DHT22;21803;53.586;10.040;2023-07-31T10:16:27;25.70;48.80
35680;DHT22;21803;53.586;10.040;2023-07-31T10:18:54;25.80;48.90
35680;DHT22;21803;53.586;10.040;2023-07-31T10:21:20;25.70;48.80
35680;DHT22;21803;53.586;10.040;2023-07-31T10:23:46;25.70;48.80
35680;DHT22;21803;53.586;10.040;2023-07-31T10:26:13;25.70;48.90
35680;DHT22;21803;53.586;10.040;2023-07-31T10:28:40;25.70;48.80
35680;DHT22;21803;53.586;10.040;2023-07-31T10:31:06;25.60;48.80
35680;DHT22;21803;53.586;10.040;2023-07-31T10:33:32;25.70;48.80
35680;DHT22;21803;53.586;10.040;2023-07-31T10:36:20;25.70;48.80
35680;DHT22;21803;53.586;10.040;2023-07-31T10:38:48;25.70;48.90
35680;DHT22;21803;53.586;10.040;2023-07-31T10:41:14;25.70;48.80
35680;DHT22;21803;53.586;10.040;2023-07-31T10:43:40;25.70;48.90
35680;DHT22;21803;53.586;10.040;2023-07-31T10:46:11;25.80;49.00
35680;DHT22;21803;53.586;10.040;2023-07-31T10:48:38;25.70;48.90
35680;DHT22;21803;53.586;10.040;2023-07-31T10:51:22;25.70;48.90
35680;DHT22;21803;53.586;10.040;2023-07-31T10:53:48;25.70;48.90
35680;DHT22;21803;53.586;10.040;2023-07-31T10:56:13;25.70;48.90
35680;DHT22;21803;53.586;10.040;2023-07-31T10:58:44;25.70;49.00
35680;DHT22;21803;53.586;10.040;2023-07-31T11:01:11;25.80;49.00
35680;DHT22;21803;53.586;10.040;2023-07-31T11:03:45;25.70;49.00
35680;DHT22;21803;53.586;10.040;2023-07-31T11:06:12;25.80;49.00
35680;DHT22;21803;53.586;10.040;2023-07-31T11:08:48;25.70;49.00
35680;DHT22;21803;53.586;10.040;2023-07-31T11:11:16;25.70;49.00
35680;DHT22;21803;53.586;10.040;2023-07-31T11:14:00;25.70;49.00
35680;DHT22;21803;53.586;10.040;2023-07-31T11:16:26;25.70;49.00
35680;DHT22;21803;53.586;10.040;2023-07-31T11:18:52;25.70;49.00
35680;DHT22;21803;53.586;10.040;2023-07-31T11:21:21;25.70;49.00
35680;DHT22;21803;53.586;10.040;2023-07-31T11:23:51;25.70;49.00
35680;DHT22;21803;53.586;10.040;2023-07-31T11:26:18;25.70;49.00
35680;DHT22;21803;53.586;10.040;2023-07-31T11:28:46;25.70;49.70
35680;DHT22;21803;53.586;10.040;2023-07-31T11:31:12;25.70;49.00
35680;DHT22;21803;53.586;10.040;2023-07-31T11:33:38;25.70;49.10
35680;DHT22;21803;53.586;10.040;2023-07-31T11:36:03;25.70;49.70
35680;DHT22;21803;53.586;10.040;2023-07-31T11:38:33;25.70;49.10
35680;DHT22;21803;53.586;10.040;2023-07-31T11:41:02;25.70;49.10
35680;DHT22;21803;53.586;10.040;2023-07-31T11:43:28;25.70;49.10
35680;DHT22;21803;53.586;10.040;2023-07-31T11:45:55;25.70;49.10
35680;DHT22;21803;53.586;10.040;2023-07-31T11:48:26;25.70;49.10
35680;DHT22;21803;53.586;10.040;2023-07-31T11:50:54;25.70;49.10
35680;DHT22;21803;53.586;10.040;2023-07-31T11:53:30;25.70;49.10
35680;DHT22;21803;53.586;10.040;2023-07-31T11:55:59;25.70;49.10
35680;DHT22;21803;53.586;10.040;2023-07-31T11:58:24;25.70;49.10
35680;DHT22;21803;53.586;10.040;2023-07-31T12:00:50;25.70;49.10
35680;DHT22;21803;53.586;10.040;2023-07-31T12:03:17;25.70;49.10
35680;DHT22;21803;53.586;10.040;2023-07-31T12:05:43;25.70;49.20
35680;DHT22;21803;53.586;10.040;2023-07-31T12:08:10;25.70;49.20
35680;DHT22;21803;53.586;10.040;2023-07-31T12:10:37;25.70;49.20
35680;DHT22;21803;53.586;10.040;2023-07-31T12:13:10;25.70;49.20
35680;DHT22;21803;53.586;10.040;2023-07-31T12:18:07;25.70;49.20
35680;DHT22;21803;53.586;10.040;2023-07-31T12:20:33;25.70;49.20
35680;DHT22;21803;53.586;10.040;2023-07-31T12:23:00;25.80;49.20
35680;DHT22;21803;53.586;10.040;2023-07-31T12:25:30;25.70;49.20
35680;DHT22;21803;53.586;10.040;2023-07-31T12:27:56;25.70;49.70
35680;DHT22;21803;53.586;10.040;2023-07-31T12:30:33;25.70;49.10
35680;DHT22;21803;53.586;10.040;2023-07-31T12:33:07;25.70;49.20
35680;DHT22;21803;53.586;10.040;2023-07-31T12:35:38;25.70;49.10
35680;DHT22;21803;53.586;10.040;2023-07-31T12:38:05;25.70;49.20
35680;DHT22;21803;53.586;10.040;2023-07-31T12:40:32;25.70;49.10
35680;DHT22;21803;53.586;10.040;2023-07-31T12:42:57;25.70;49.20
35680;DHT22;21803;53.586;10.040;2023-07-31T12:45:23;25.80;49.20
35680;DHT22;21803;53.586;10.040;2023-07-31T12:47:49;25.70;49.20
35680;DHT22;21803;53.586;10.040;2023-07-31T12:50:14;25.70;49.20
35680;DHT22;21803;53.586;10.040;2023-07-31T12:52:40;25.70;49.20
35680;DHT22;21803;53.586;10.040;2023-07-31T12:55:05;25.70;49.20
35680;DHT22;21803;53.586;10.040;2023-07-31T12:57:31;25.70;49.20
35680;DHT22;21803;53.586;10.040;2023-07-31T12:59:56;25.70;49.20
35680;DHT22;21803;53.586;10.040;2023-07-31T13:02:22;25.70;49.20
35680;DHT22;21803;53.586;10.040;2023-07-31T13:04:49;25.60;49.10
35680;DHT22;21803;53.586;10.040;2023-07-31T13:07:15;25.70;49.20
35680;DHT22;21803;53.586;10.040;2023-07-31T13:09:40;25.70;49.20
35680;DHT22;21803;53.586;10.040;2023-07-31T13:12:06;25.70;49.20
35680;DHT22;21803;53.586;10.040;2023-07-31T13:14:32;25.70;49.20
35680;DHT22;21803;53.586;10.040;2023-07-31T13:16:57;25.70;49.20
35680;DHT22;21803;53.586;10.040;2023-07-31T13:19:23;25.70;49.20
35680;DHT22;21803;53.586;10.040;2023-07-31T13:21:48;25.70;49.20
35680;DHT22;21803;53.586;10.040;2023-07-31T13:24:14;25.70;49.20
35680;DHT22;21803;53.586;10.040;2023-07-31T13:26:39;25.70;49.30
35680;DHT22;21803;53.586;10.040;2023-07-31T13:29:05;25.70;49.30
35680;DHT22;21803;53.586;10.040;2023-07-31T13:31:30;25.80;49.30
35680;DHT22;21803;53.586;10.040;2023-07-31T13:33:56;25.70;49.30
35680;DHT22;21803;53.586;10.040;2023-07-31T13:36:21;25.70;49.30
35680;DHT22;21803;53.586;10.040;2023-07-31T13:38:47;25.80;49.30
35680;DHT22;21803;53.586;10.040;2023-07-31T13:41:12;25.70;49.30
35680;DHT22;21803;53.586;10.040;2023-07-31T13:43:38;25.70;49.30
35680;DHT22;21803;53.586;10.040;2023-07-31T13:46:04;25.70;49.30
35680;DHT22;21803;53.586;10.040;2023-07-31T13:48:34;25.70;49.30
35680;DHT22;21803;53.586;10.040;2023-07-31T13:51:00;25.60;49.30
35680;DHT22;21803;53.586;10.040;2023-07-31T13:53:25;25.70;49.30
35680;DHT22;21803;53.586;10.040;2023-07-31T13:55:51;24.80;48.80
35680;DHT22;21803;53.586;10.040;2023-07-31T13:58:17;25.70;49.30
35680;DHT22;21803;53.586;10.040;2023-07-31T14:00:42;25.60;49.30
35680;DHT22;21803;53.586;10.040;2023-07-31T14:03:08;25.70;49.30
35680;DHT22;21803;53.586;10.040;2023-07-31T14:05:33;25.70;49.30
35680;DHT22;21803;53.586;10.040;2023-07-31T14:07:59;25.70;49.40
35680;DHT22;21803;53.586;10.040;2023-07-31T14:10:25;25.70;49.40
35680;DHT22;21803;53.586;10.040;2023-07-31T14:12:50;25.60;49.40
35680;DHT22;21803;53.586;10.040;2023-07-31T14:15:16;25.70;49.40
35680;DHT22;21803;53.586;10.040;2023-07-31T14:17:41;25.70;49.40
35680;DHT22;21803;53.586;10.040;2023-07-31T14:20:07;25.70;50.00
35680;DHT22;21803;53.586;10.040;2023-07-31T14:22:33;25.70;49.50
35680;DHT22;21803;53.586;10.040;2023-07-31T14:24:59;25.60;49.40
35680;DHT22;21803;53.586;10.040;2023-07-31T14:27:25;25.70;49.50
35680;DHT22;21803;53.586;10.040;2023-07-31T14:29:51;25.60;49.40
35680;DHT22;21803;53.586;10.040;2023-07-31T14:32:16;25.70;49.50
35680;DHT22;21803;53.586;10.040;2023-07-31T14:34:42;25.70;49.50
35680;DHT22;21803;53.586;10.040;2023-07-31T14:37:07;25.70;49.50
35680;DHT22;21803;53.586;10.040;2023-07-31T14:39:33;25.70;49.50
35680;DHT22;21803;53.586;10.040;2023-07-31T14:41:58;25.70;49.50
35680;DHT22;21803;53.586;10.040;2023-07-31T14:44:24;25.70;49.60
35680;DHT22;21803;53.586;10.040;2023-07-31T14:46:49;25.60;49.50
35680;DHT22;21803;53.586;10.040;2023-07-31T14:49:15;25.70;49.60
35680;DHT22;21803;53.586;10.040;2023-07-31T14:51:40;25.60;49.50
35680;DHT22;21803;53.586;10.040;2023-07-31T14:54:06;25.50;49.50
35680;DHT22;21803;53.586;10.040;2023-07-31T14:56:31;25.70;49.60
35680;DHT22;21803;53.586;10.040;2023-07-31T14:58:57;25.60;49.60
35680;DHT22;21803;53.586;10.040;2023-07-31T15:01:23;25.70;49.60
35680;DHT22;21803;53.586;10.040;2023-07-31T15:03:49;25.60;49.60
35680;DHT22;21803;53.586;10.040;2023-07-31T15:06:14;25.70;49.60
35680;DHT22;21803;53.586;10.040;2023-07-31T15:08:40;25.70;49.60
35680;DHT22;21803;53.586;10.040;2023-07-31T15:11:07;25.70;49.60
35680;DHT22;21803;53.586;10.040;2023-07-31T15:13:32;25.70;49.70
35680;DHT22;21803;53.586;10.040;2023-07-31T15:15:58;25.60;49.60
35680;DHT22;21803;53.586;10.040;2023-07-31T15:18:23;25.70;49.70
35680;DHT22;21803;53.586;10.040;2023-07-31T15:20:49;25.70;49.70
35680;DHT22;21803;53.586;10.040;2023-07-31T15:23:14;25.70;49.70
35680;DHT22;21803;53.586;10.040;2023-07-31T15:25:40;25.60;49.70
35680;DHT22;21803;53.586;10.040;2023-07-31T15:28:05;25.60;49.80
35680;DHT22;21803;53.586;10.040;2023-07-31T15:30:32;25.60;49.70
35680;DHT22;21803;53.586;10.040;2023-07-31T15:32:59;25.70;49.80
35680;DHT22;21803;53.586;10.040;2023-07-31T15:35:24;25.60;49.70
35680;DHT22;21803;53.586;10.040;2023-07-31T15:37:50;25.70;49.90
35680;DHT22;21803;53.586;10.040;2023-07-31T15:40:15;25.70;49.80
35680;DHT22;21803;53.586;10.040;2023-07-31T15:42:41;25.70;49.90
35680;DHT22;21803;53.586;10.040;2023-07-31T15:45:07;25.70;49.90
35680;DHT22;21803;53.586;10.040;2023-07-31T15:47:34;25.70;49.90
35680;DHT22;21803;53.586;10.040;2023-07-31T15:49:59;25.70;49.90
35680;DHT22;21803;53.586;10.040;2023-07-31T15:52:25;25.70;49.90
35680;DHT22;21803;53.586;10.040;2023-07-31T15:54:50;25.60;49.90
35680;DHT22;21803;53.586;10.040;2023-07-31T15:57:16;25.60;49.90
35680;DHT22;21803;53.586;10.040;2023-07-31T15:59:41;25.70;49.90
35680;DHT22;21803;53.586;10.040;2023-07-31T16:02:08;25.70;50.00
35680;DHT22;21803;53.586;10.040;2023-07-31T16:04:35;25.60;49.90
35680;DHT22;21803;53.586;10.040;2023-07-31T16:07:01;25.70;50.00
35680;DHT22;21803;53.586;10.040;2023-07-31T16:09:26;25.60;50.00
35680;DHT22;21803;53.586;10.040;2023-07-31T16:11:52;25.60;50.00
35680;DHT22;21803;53.586;10.040;2023-07-31T16:16:56;25.60;50.00
35680;DHT22;21803;53.586;10.040;2023-07-31T16:19:22;25.60;50.00
35680;DHT22;21803;53.586;10.040;2023-07-31T16:21:48;25.60;50.00
35680;DHT22;21803;53.586;10.040;2023-07-31T16:24:13;25.60;50.10
35680;DHT22;21803;53.586;10.040;2023-07-31T16:26:39;25.60;50.00
35680;DHT22;21803;53.586;10.040;2023-07-31T16:29:04;25.60;50.10
35680;DHT22;21803;53.586;10.040;2023-07-31T16:31:30;25.60;50.10
35680;DHT22;21803;53.586;10.040;2023-07-31T16:33:56;25.60;50.10
35680;DHT22;21803;53.586;10.040;2023-07-31T16:36:23;25.60;50.10
35680;DHT22;21803;53.586;10.040;2023-07-31T16:38:49;25.60;50.20
35680;DHT22;21803;53.586;10.040;2023-07-31T16:41:15;25.60;50.20
35680;DHT22;21803;53.586;10.040;2023-07-31T16:43:40;25.60;50.20
35680;DHT22;21803;53.586;10.040;2023-07-31T16:46:06;25.60;50.20
35680;DHT22;21803;53.586;10.040;2023-07-31T16:48:31;25.60;50.20
35680;DHT22;21803;53.586;10.040;2023-07-31T16:50:57;25.70;50.30
35680;DHT22;21803;53.586;10.040;2023-07-31T16:53:22;25.60;50.20
35680;DHT22;21803;53.586;10.040;2023-07-31T16:55:48;25.60;50.20
35680;DHT22;21803;53.586;10.040;2023-07-31T16:58:13;25.60;50.20
35680;DHT22;21803;53.586;10.040;2023-07-31T17:00:39;25.60;50.30
35680;DHT22;21803;53.586;10.040;2023-07-31T17:03:04;25.60;50.30
35680;DHT22;21803;53.586;10.040;2023-07-31T17:05:31;25.60;50.30
35680;DHT22;21803;53.586;10.040;2023-07-31T17:07:57;25.60;50.30
35680;DHT22;21803;53.586;10.040;2023-07-31T17:10:22;25.70;50.30
35680;DHT22;21803;53.586;10.040;2023-07-31T17:12:48;25.60;50.30
35680;DHT22;21803;53.586;10.040;2023-07-31T17:15:13;25.60;50.30
35680;DHT22;21803;53.586;10.040;2023-07-31T17:17:39;25.60;50.30
35680;DHT22;21803;53.586;10.040;2023-07-31T17:20:05;25.60;50.30
35680;DHT22;21803;53.586;10.040;2023-07-31T17:22:30;25.60;50.30
35680;DHT22;21803;53.586;10.040;2023-07-31T17:24:56;25.60;50.30
35680;DHT22;21803;53.586;10.040;2023-07-31T17:27:22;25.60;50.30
35680;DHT22;21803;53.586;10.040;2023-07-31T17:29:49;25.60;50.40
35680;DHT22;21803;53.586;10.040;2023-07-31T17:32:15;25.60;50.40
35680;DHT22;21803;53.586;10.040;2023-07-31T17:34:40;25.60;50.40
35680;DHT22;21803;53.586;10.040;2023-07-31T17:37:08;25.60;50.40
35680;DHT22;21803;53.586;10.040;2023-07-31T17:39:33;27.80;51.80
35680;DHT22;21803;53.586;10.040;2023-07-31T17:41:59;25.70;50.50
35680;DHT22;21803;53.586;10.040;2023-07-31T17:44:24;25.60;50.40
35680;DHT22;21803;53.586;10.040;2023-07-31T17:46:50;25.70;50.50
35680;DHT22;21803;53.586;10.040;2023-07-31T17:49:16;25.60;50.40
35680;DHT22;21803;53.586;10.040;2023-07-31T17:51:42;25.60;50.50
35680;DHT22;21803;53.586;10.040;2023-07-31T17:54:07;25.70;50.50
35680;DHT22;21803;53.586;10.040;2023-07-31T17:56:33;25.60;50.50
35680;DHT22;21803;53.586;10.040;2023-07-31T17:59:03;25.60;50.50
35680;DHT22;21803;53.586;10.040;2023-07-31T18:01:29;25.70;50.60
35680;DHT22;21803;53.586;10.040;2023-07-31T18:03:54;25.60;50.50
35680;DHT22;21803;53.586;10.040;2023-07-31T18:06:20;25.60;50.50
35680;DHT22;21803;53.586;10.040;2023-07-31T18:08:45;25.60;50.50
35680;DHT22;21803;53.586;10.040;2023-07-31T18:11:11;25.60;50.60
35680;DHT22;21803;53.586;10.040;2023-07-31T18:13:38;25.60;50.50
35680;DHT22;21803;53.586;10.040;2023-07-31T18:16:03;25.60;50.60
35680;DHT22;21803;53.586;10.040;2023-07-31T18:18:29;25.60;50.60
35680;DHT22;21803;53.586;10.040;2023-07-31T18:20:54;25.60;50.60
35680;DHT22;21803;53.586;10.040;2023-07-31T18:23:20;25.60;50.60
35680;DHT22;21803;53.586;10.040;2023-07-31T18:25:47;25.70;50.70
35680;DHT22;21803;53.586;10.040;2023-07-31T18:28:12;25.50;50.60
35680;DHT22;21803;53.586;10.040;2023-07-31T18:30:38;25.60;50.60
35680;DHT22;21803;53.586;10.040;2023-07-31T18:33:04;25.60;50.60
35680;DHT22;21803;53.586;10.040;2023-07-31T18:35:30;25.70;50.70
35680;DHT22;21803;53.586;10.040;2023-07-31T18:37:55;25.60;50.70
35680;DHT22;21803;53.586;10.040;2023-07-31T18:40:21;25.60;50.70
35680;DHT22;21803;53.586;10.040;2023-07-31T18:42:46;25.60;50.70
35680;DHT22;21803;53.586;10.040;2023-07-31T18:45:12;25.60;50.70
35680;DHT22;21803;53.586;10.040;2023-07-31T18:47:37;25.60;50.70
35680;DHT22;21803;53.586;10.040;2023-07-31T18:50:03;25.60;50.70
35680;DHT22;21803;53.586;10.040;2023-07-31T18:52:30;25.60;50.80
35680;DHT22;21803;53.586;10.040;2023-07-31T18:54:56;25.60;50.80
35680;DHT22;21803;53.586;10.040;2023-07-31T18:57:21;25.60;51.40
35680;DHT22;21803;53.586;10.040;2023-07-31T18:59:47;25.60;50.80
35680;DHT22;21803;53.586;10.040;2023-07-31T19:02:13;25.50;50.70
35680;DHT22;21803;53.586;10.040;2023-07-31T19:04:38;25.70;50.80
35680;DHT22;21803;53.586;10.040;2023-07-31T19:07:04;25.60;50.80
35680;DHT22;21803;53.586;10.040;2023-07-31T19:09:32;25.60;50.80
35680;DHT22;21803;53.586;10.040;2023-07-31T19:11:59;25.70;50.90
35680;DHT22;21803;53.586;10.040;2023-07-31T19:14:24;25.60;50.80
35680;DHT22;21803;53.586;10.040;2023-07-31T19:16:50;25.60;50.80